sensor_id;sensor_type;location;lat;lon;timestamp;temperature;humidity
38118;DHT22;23928;47.562;7.508;2023-03-01T00:02:02;0.20;99.90
38118;DHT22;23928;47.562;7.508;2023-03-01T00:04:28;0.20;99.90
38118;DHT22;23928;47.562;7.508;2023-03-01T00:06:54;0.30;99.90
38118;DHT22;23928;47.562;7.508;2023-03-01T00:09:19;0.20;99.90
38118;DHT22;23928;47.562;7.508;2023-03-01T00:11:45;0.40;99.90
38118;DHT22;23928;47.562;7.508;2023-03-01T00:14:11;0.30;99.90
38118;DHT22;23928;47.562;7.508;2023-03-01T00:16:39;-0.10;99.90
38118;DHT22;23928;47.562;7.508;2023-03-01T00:19:15;0.00;99.90
38118;DHT22;23928;47.562;7.508;2023-03-01T00:21:41;0.00;99.90
38118;DHT22;23928;47.562;7.508;2023-03-01T00:24:08;0.10;99.90
38118;DHT22;23928;47.562;7.508;2023-03-01T00:26:33;0.00;99.90
38118;DHT22;23928;47.562;7.508;2023-03-01T00:29:00;0.10;99.90
38118;DHT22;23928;47.562;7.508;2023-03-01T00:31:28;-0.10;99.90
38118;DHT22;23928;47.562;7.508;2023-03-01T00:34:03;0.00;99.90
38118;DHT22;23928;47.562;7.508;2023-03-01T00:36:35;0.00;99.90
38118;DHT22;23928;47.562;7.508;2023-03-01T00:39:03;-0.20;99.90
38118;DHT22;23928;47.562;7.508;2023-03-01T00:41:29;-0.30;99.90
38118;DHT22;23928;47.562;7.508;2023-03-01T00:43:55;-0.50;99.90
38118;DHT22;23928;47.562;7.508;2023-03-01T00:46:24;-0.50;99.90
38118;DHT22;23928;47.562;7.508;2023-03-01T00:48:50;-0.50;99.90
38118;DHT22;23928;47.562;7.508;2023-03-01T00:51:18;-0.60;99.90
38118;DHT22;23928;47.562;7.508;2023-03-01T00:53:45;-0.40;99.90
38118;DHT22;23928;47.562;7.508;2023-03-01T00:56:12;-0.30;99.90
38118;DHT22;23928;47.562;7.508;2023-03-01T00:58:38;-0.40;99.90
38118;DHT22;23928;47.562;7.508;2023-03-01T01:01:09;-0.40;99.90
38118;DHT22;23928;47.562;7.508;2023-03-01T01:03:47;-0.30;99.90
38118;DHT22;23928;47.562;7.508;2023-03-01T01:06:15;-0.30;99.90
38118;DHT22;23928;47.562;7.508;2023-03-01T01:08:41;-0.30;99.90
38118;DHT22;23928;47.562;7.508;2023-03-01T01:11:09;-0.60;99.90
38118;DHT22;23928;47.562;7.508;2023-03-01T01:13:34;-0.70;99.90
38118;DHT22;23928;47.562;7.508;2023-03-01T01:16:01;-0.60;99.90
38118;DHT22;23928;47.562;7.508;2023-03-01T01:18:26;-0.60;99.90
38118;DHT22;23928;47.562;7.508;2023-03-01T01:20:52;-0.50;99.90
38118;DHT22;23928;47.562;7.508;2023-03-01T01:23:18;-0.60;99.90
38118;DHT22;23928;47.562;7.508;2023-03-01T01:25:43;-0.60;99.90
38118;DHT22;23928;47.562;7.508;2023-03-01T01:28:09;-0.60;99.90
38118;DHT22;23928;47.562;7.508;2023-03-01T01:30:34;-0.80;99.90
38118;DHT22;23928;47.562;7.508;2023-03-01T01:33:00;-0.80;99.90
38118;DHT22;23928;47.562;7.508;2023-03-01T01:35:25;-0.80;99.90
38118;DHT22;23928;47.562;7.508;2023-03-01T01:37:51;-0.90;99.90
38118;DHT22;23928;47.562;7.508;2023-03-01T01:40:17;-0.90;99.90
38118;DHT22;23928;47.562;7.508;2023-03-01T01:42:42;-1.10;99.90
38118;DHT22;23928;47.562;7.508;2023-03-01T01:45:27;-1.00;99.90
38118;DHT22;23928;47.562;7.508;2023-03-01T01:47:55;-1.00;99.90
38118;DHT22;23928;47.562;7.508;2023-03-01T01:50:22;-1.10;99.90
38118;DHT22;23928;47.562;7.508;2023-03-01T01:52:50;-1.20;99.90
38118;DHT22;23928;47.562;7.508;2023-03-01T01:55:20;-1.20;99.90
38118;DHT22;23928;47.562;7.508;2023-03-01T01:57:58;-1.20;99.90
38118;DHT22;23928;47.562;7.508;2023-03-01T02:00:27;-1.10;99.90
38118;DHT22;23928;47.562;7.508;2023-03-01T02:03:07;-1.30;99.90
38118;DHT22;23928;47.562;7.508;2023-03-01T02:08:02;-1.30;99.90
38118;DHT22;23928;47.562;7.508;2023-03-01T02:10:28;-1.30;99.90
38118;DHT22;23928;47.562;7.508;2023-03-01T02:12:55;-1.30;99.90
38118;DHT22;23928;47.562;7.508;2023-03-01T02:15:22;-1.40;99.90
38118;DHT22;23928;47.562;7.508;2023-03-01T02:17:48;-1.50;99.90
38118;DHT22;23928;47.562;7.508;2023-03-01T02:20:44;-1.40;99.90
38118;DHT22;23928;47.562;7.508;2023-03-01T02:23:11;-1.40;99.90
38118;DHT22;23928;47.562;7.508;2023-03-01T02:28:38;-1.50;99.90
38118;DHT22;23928;47.562;7.508;2023-03-01T02:31:06;-1.50;99.90
38118;DHT22;23928;47.562;7.508;2023-03-01T02:33:51;-1.50;99.90
38118;DHT22;23928;47.562;7.508;2023-03-01T02:36:37;-1.60;99.90
38118;DHT22;23928;47.562;7.508;2023-03-01T02:39:05;-1.60;99.90
38118;DHT22;23928;47.562;7.508;2023-03-01T02:41:36;-1.60;99.90
38118;DHT22;23928;47.562;7.508;2023-03-01T02:44:03;-1.50;99.90
38118;DHT22;23928;47.562;7.508;2023-03-01T02:46:29;-1.60;99.90
38118;DHT22;23928;47.562;7.508;2023-03-01T02:48:57;-1.80;99.90
38118;DHT22;23928;47.562;7.508;2023-03-01T02:56:22;-1.90;99.90
38118;DHT22;23928;47.562;7.508;2023-03-01T02:58:48;-1.70;99.90
38118;DHT22;23928;47.562;7.508;2023-03-01T03:01:18;-1.50;99.90
38118;DHT22;23928;47.562;7.508;2023-03-01T03:03:44;-1.40;99.90
38118;DHT22;23928;47.562;7.508;2023-03-01T03:06:09;-1.50;99.90
38118;DHT22;23928;47.562;7.508;2023-03-01T03:08:35;-1.50;99.90
38118;DHT22;23928;47.562;7.508;2023-03-01T03:11:01;-1.60;99.90
38118;DHT22;23928;47.562;7.508;2023-03-01T03:13:26;-1.50;99.90
38118;DHT22;23928;47.562;7.508;2023-03-01T03:15:54;-1.50;99.90
38118;DHT22;23928;47.562;7.508;2023-03-01T03:18:21;-1.80;99.90
38118;DHT22;23928;47.562;7.508;2023-03-01T03:20:48;-1.80;99.90
38118;DHT22;23928;47.562;7.508;2023-03-01T03:23:19;-1.70;99.90
38118;DHT22;23928;47.562;7.508;2023-03-01T03:25:47;-1.60;99.90
38118;DHT22;23928;47.562;7.508;2023-03-01T03:28:12;-1.70;99.90
38118;DHT22;23928;47.562;7.508;2023-03-01T03:30:40;-1.80;99.90
38118;DHT22;23928;47.562;7.508;2023-03-01T03:33:06;-1.80;99.90
38118;DHT22;23928;47.562;7.508;2023-03-01T03:35:38;-2.00;99.90
38118;DHT22;23928;47.562;7.508;2023-03-01T03:38:07;-2.20;99.90
38118;DHT22;23928;47.562;7.508;2023-03-01T03:40:42;-2.20;99.90
38118;DHT22;23928;47.562;7.508;2023-03-01T03:43:11;-2.20;99.90
38118;DHT22;23928;47.562;7.508;2023-03-01T03:45:38;-2.20;99.90
38118;DHT22;23928;47.562;7.508;2023-03-01T03:48:05;-2.00;99.90
38118;DHT22;23928;47.562;7.508;2023-03-01T03:50:32;-2.20;99.90
38118;DHT22;23928;47.562;7.508;2023-03-01T03:53:00;-1.90;99.90
38118;DHT22;23928;47.562;7.508;2023-03-01T03:55:26;-1.80;99.90
38118;DHT22;23928;47.562;7.508;2023-03-01T03:57:57;-1.80;99.90
38118;DHT22;23928;47.562;7.508;2023-03-01T04:00:23;-1.90;99.90
38118;DHT22;23928;47.562;7.508;2023-03-01T04:02:50;-1.90;99.90
38118;DHT22;23928;47.562;7.508;2023-03-01T04:05:18;-2.30;99.90
38118;DHT22;23928;47.562;7.508;2023-03-01T04:07:45;-2.30;99.90
38118;DHT22;23928;47.562;7.508;2023-03-01T04:10:16;-2.30;99.90
38118;DHT22;23928;47.562;7.508;2023-03-01T04:12:42;-2.10;99.90
38118;DHT22;23928;47.562;7.508;2023-03-01T04:15:09;-2.20;99.90
38118;DHT22;23928;47.562;7.508;2023-03-01T04:17:42;-2.10;99.90
38118;DHT22;23928;47.562;7.508;2023-03-01T04:20:10;-2.10;99.90
38118;DHT22;23928;47.562;7.508;2023-03-01T04:22:40;-2.20;99.90
38118;DHT22;23928;47.562;7.508;2023-03-01T04:25:06;-2.20;99.90
38118;DHT22;23928;47.562;7.508;2023-03-01T04:27:35;-2.40;99.90
38118;DHT22;23928;47.562;7.508;2023-03-01T04:30:03;-2.50;99.90
38118;DHT22;23928;47.562;7.508;2023-03-01T04:32:29;-2.30;99.90
38118;DHT22;23928;47.562;7.508;2023-03-01T04:34:54;-2.20;99.90
38118;DHT22;23928;47.562;7.508;2023-03-01T04:37:20;-2.10;99.90
38118;DHT22;23928;47.562;7.508;2023-03-01T04:39:45;-2.00;99.90
38118;DHT22;23928;47.562;7.508;2023-03-01T04:42:13;-1.80;99.90
38118;DHT22;23928;47.562;7.508;2023-03-01T04:44:38;-1.90;99.90
38118;DHT22;23928;47.562;7.508;2023-03-01T04:47:04;-2.10;99.90
38118;DHT22;23928;47.562;7.508;2023-03-01T04:49:29;-2.10;99.90
38118;DHT22;23928;47.562;7.508;2023-03-01T04:51:55;-2.10;99.90
38118;DHT22;23928;47.562;7.508;2023-03-01T04:54:23;-2.00;99.90
38118;DHT22;23928;47.562;7.508;2023-03-01T04:56:49;-2.00;99.90
38118;DHT22;23928;47.562;7.508;2023-03-01T04:59:14;-2.20;99.90
38118;DHT22;23928;47.562;7.508;2023-03-01T05:01:40;-2.10;99.90
38118;DHT22;23928;47.562;7.508;2023-03-01T05:04:08;-2.20;99.90
38118;DHT22;23928;47.562;7.508;2023-03-01T05:06:38;-2.10;99.90
38118;DHT22;23928;47.562;7.508;2023-03-01T05:09:04;-2.30;99.90
38118;DHT22;23928;47.562;7.508;2023-03-01T05:11:30;-2.40;99.90
38118;DHT22;23928;47.562;7.508;2023-03-01T05:14:07;-2.40;99.90
38118;DHT22;23928;47.562;7.508;2023-03-01T05:16:33;-2.20;99.90
38118;DHT22;23928;47.562;7.508;2023-03-01T05:18:59;-2.20;99.90
38118;DHT22;23928;47.562;7.508;2023-03-01T05:21:25;-2.10;99.90
38118;DHT22;23928;47.562;7.508;2023-03-01T05:23:51;-2.00;99.90
38118;DHT22;23928;47.562;7.508;2023-03-01T05:26:18;-2.00;99.90
38118;DHT22;23928;47.562;7.508;2023-03-01T05:28:44;-2.10;99.90
38118;DHT22;23928;47.562;7.508;2023-03-01T05:31:10;-2.10;99.90
38118;DHT22;23928;47.562;7.508;2023-03-01T05:33:39;-2.10;99.90
38118;DHT22;23928;47.562;7.508;2023-03-01T05:36:07;-2.20;99.90
38118;DHT22;23928;47.562;7.508;2023-03-01T05:38:33;-2.00;99.90
38118;DHT22;23928;47.562;7.508;2023-03-01T05:40:59;-1.80;99.90
38118;DHT22;23928;47.562;7.508;2023-03-01T05:43:25;-2.00;99.90
38118;DHT22;23928;47.562;7.508;2023-03-01T05:45:50;-2.10;99.90
38118;DHT22;23928;47.562;7.508;2023-03-01T05:48:16;-2.40;99.90
38118;DHT22;23928;47.562;7.508;2023-03-01T05:50:45;-2.20;99.90
38118;DHT22;23928;47.562;7.508;2023-03-01T05:53:16;-2.20;99.90
38118;DHT22;23928;47.562;7.508;2023-03-01T05:55:43;-2.00;99.90
38118;DHT22;23928;47.562;7.508;2023-03-01T05:58:27;-2.00;99.90
38118;DHT22;23928;47.562;7.508;2023-03-01T06:00:53;-1.90;99.90
38118;DHT22;23928;47.562;7.508;2023-03-01T06:03:19;-1.90;99.90
38118;DHT22;23928;47.562;7.508;2023-03-01T06:05:44;-1.70;99.90
38118;DHT22;23928;47.562;7.508;2023-03-01T06:08:11;-1.70;99.90
38118;DHT22;23928;47.562;7.508;2023-03-01T06:10:37;-1.90;99.90
38118;DHT22;23928;47.562;7.508;2023-03-01T06:13:03;-1.90;99.90
38118;DHT22;23928;47.562;7.508;2023-03-01T06:15:28;-1.80;99.90
38118;DHT22;23928;47.562;7.508;2023-03-01T06:17:55;-1.60;99.90
38118;DHT22;23928;47.562;7.508;2023-03-01T06:20:24;-1.80;99.90
38118;DHT22;23928;47.562;7.508;2023-03-01T06:22:50;-2.00;99.90
38118;DHT22;23928;47.562;7.508;2023-03-01T06:25:19;-1.90;99.90
38118;DHT22;23928;47.562;7.508;2023-03-01T06:27:46;-1.80;99.90
38118;DHT22;23928;47.562;7.508;2023-03-01T06:30:13;-1.80;99.90
38118;DHT22;23928;47.562;7.508;2023-03-01T06:32:40;-1.70;99.90
38118;DHT22;23928;47.562;7.508;2023-03-01T06:35:13;-1.60;99.90
38118;DHT22;23928;47.562;7.508;2023-03-01T06:37:40;-1.80;99.90
38118;DHT22;23928;47.562;7.508;2023-03-01T06:40:07;-1.70;99.90
38118;DHT22;23928;47.562;7.508;2023-03-01T06:42:38;-1.90;99.90
38118;DHT22;23928;47.562;7.508;2023-03-01T06:45:05;-1.90;99.90
38118;DHT22;23928;47.562;7.508;2023-03-01T06:47:32;-1.90;99.90
38118;DHT22;23928;47.562;7.508;2023-03-01T06:49:59;-1.80;99.90
38118;DHT22;23928;47.562;7.508;2023-03-01T06:52:25;-1.90;99.90
38118;DHT22;23928;47.562;7.508;2023-03-01T06:54:50;-2.10;99.90
38118;DHT22;23928;47.562;7.508;2023-03-01T06:57:16;-2.00;99.90
38118;DHT22;23928;47.562;7.508;2023-03-01T06:59:42;-1.60;99.90
38118;DHT22;23928;47.562;7.508;2023-03-01T07:02:10;-1.80;99.90
38118;DHT22;23928;47.562;7.508;2023-03-01T07:04:37;-1.80;99.90
38118;DHT22;23928;47.562;7.508;2023-03-01T07:07:02;-1.60;99.90
38118;DHT22;23928;47.562;7.508;2023-03-01T07:09:28;-1.70;99.90
38118;DHT22;23928;47.562;7.508;2023-03-01T07:11:54;-2.00;99.90
38118;DHT22;23928;47.562;7.508;2023-03-01T07:14:19;-2.00;99.90
38118;DHT22;23928;47.562;7.508;2023-03-01T07:16:45;-1.90;99.90
38118;DHT22;23928;47.562;7.508;2023-03-01T07:19:11;-1.90;99.90
38118;DHT22;23928;47.562;7.508;2023-03-01T07:21:37;-1.90;99.90
38118;DHT22;23928;47.562;7.508;2023-03-01T07:24:06;-2.10;99.90
38118;DHT22;23928;47.562;7.508;2023-03-01T07:26:31;-1.90;99.90
38118;DHT22;23928;47.562;7.508;2023-03-01T07:28:59;-1.60;99.90
38118;DHT22;23928;47.562;7.508;2023-03-01T07:31:25;-1.50;99.90
38118;DHT22;23928;47.562;7.508;2023-03-01T07:33:53;-1.40;99.90
38118;DHT22;23928;47.562;7.508;2023-03-01T07:36:19;-1.60;99.90
38118;DHT22;23928;47.562;7.508;2023-03-01T07:38:45;-1.70;99.90
38118;DHT22;23928;47.562;7.508;2023-03-01T07:41:10;-1.60;99.90
38118;DHT22;23928;47.562;7.508;2023-03-01T07:43:36;-1.50;99.90
38118;DHT22;23928;47.562;7.508;2023-03-01T07:46:03;-1.30;99.90
38118;DHT22;23928;47.562;7.508;2023-03-01T07:48:29;-1.40;99.90
38118;DHT22;23928;47.562;7.508;2023-03-01T07:51:01;-1.70;99.90
38118;DHT22;23928;47.562;7.508;2023-03-01T07:53:27;-1.60;99.90
38118;DHT22;23928;47.562;7.508;2023-03-01T07:56:08;-1.60;99.90
38118;DHT22;23928;47.562;7.508;2023-03-01T07:58:35;-1.40;99.90
38118;DHT22;23928;47.562;7.508;2023-03-01T08:01:03;-1.50;99.90
38118;DHT22;23928;47.562;7.508;2023-03-01T08:03:29;-1.40;99.90
38118;DHT22;23928;47.562;7.508;2023-03-01T08:05:55;-1.40;99.90
38118;DHT22;23928;47.562;7.508;2023-03-01T08:08:21;-1.30;99.90
38118;DHT22;23928;47.562;7.508;2023-03-01T08:10:46;-1.30;99.90
38118;DHT22;23928;47.562;7.508;2023-03-01T08:13:12;-1.60;99.90
38118;DHT22;23928;47.562;7.508;2023-03-01T08:15:38;-1.40;99.90
38118;DHT22;23928;47.562;7.508;2023-03-01T08:18:03;-1.20;99.90
38118;DHT22;23928;47.562;7.508;2023-03-01T08:20:29;-1.30;99.90
38118;DHT22;23928;47.562;7.508;2023-03-01T08:22:54;-1.40;99.90
38118;DHT22;23928;47.562;7.508;2023-03-01T08:25:20;-1.20;99.90
38118;DHT22;23928;47.562;7.508;2023-03-01T08:27:45;-1.30;99.90
38118;DHT22;23928;47.562;7.508;2023-03-01T08:30:11;-1.20;99.90
38118;DHT22;23928;47.562;7.508;2023-03-01T08:32:39;-1.20;99.90
38118;DHT22;23928;47.562;7.508;2023-03-01T08:35:05;-1.00;99.90
38118;DHT22;23928;47.562;7.508;2023-03-01T08:37:31;-1.30;99.90
38118;DHT22;23928;47.562;7.508;2023-03-01T08:39:59;-1.10;99.90
38118;DHT22;23928;47.562;7.508;2023-03-01T08:42:25;-1.20;99.90
38118;DHT22;23928;47.562;7.508;2023-03-01T08:44:51;-1.20;99.90
38118;DHT22;23928;47.562;7.508;2023-03-01T08:47:17;-1.10;99.90
38118;DHT22;23928;47.562;7.508;2023-03-01T08:49:42;-1.00;99.90
38118;DHT22;23928;47.562;7.508;2023-03-01T08:52:08;-1.20;99.90
38118;DHT22;23928;47.562;7.508;2023-03-01T08:54:33;-1.00;99.90
38118;DHT22;23928;47.562;7.508;2023-03-01T08:57:02;-1.00;99.90
38118;DHT22;23928;47.562;7.508;2023-03-01T08:59:27;-1.00;99.90
38118;DHT22;23928;47.562;7.508;2023-03-01T09:01:54;-1.00;99.90
38118;DHT22;23928;47.562;7.508;2023-03-01T09:04:20;-0.90;99.90
38118;DHT22;23928;47.562;7.508;2023-03-01T09:06:46;-0.90;99.90
38118;DHT22;23928;47.562;7.508;2023-03-01T09:09:16;-0.80;99.90
38118;DHT22;23928;47.562;7.508;2023-03-01T09:11:43;-0.80;99.90
38118;DHT22;23928;47.562;7.508;2023-03-01T09:14:09;-0.80;99.90
38118;DHT22;23928;47.562;7.508;2023-03-01T09:16:34;-0.80;99.90
38118;DHT22;23928;47.562;7.508;2023-03-01T09:19:01;-0.70;99.90
38118;DHT22;23928;47.562;7.508;2023-03-01T09:21:27;-0.80;99.90
38118;DHT22;23928;47.562;7.508;2023-03-01T09:23:52;-0.80;99.90
38118;DHT22;23928;47.562;7.508;2023-03-01T09:26:20;-0.80;99.90
38118;DHT22;23928;47.562;7.508;2023-03-01T09:28:48;-0.60;99.90
38118;DHT22;23928;47.562;7.508;2023-03-01T09:31:15;-0.60;99.90
38118;DHT22;23928;47.562;7.508;2023-03-01T09:33:42;-0.40;99.90
38118;DHT22;23928;47.562;7.508;2023-03-01T09:36:12;-0.50;99.90
38118;DHT22;23928;47.562;7.508;2023-03-01T09:38:37;-0.70;99.90
38118;DHT22;23928;47.562;7.508;2023-03-01T09:44:03;-0.60;99.90
38118;DHT22;23928;47.562;7.508;2023-03-01T09:46:36;-0.60;99.90
38118;DHT22;23928;47.562;7.508;2023-03-01T09:49:14;-0.50;99.90
38118;DHT22;23928;47.562;7.508;2023-03-01T09:51:54;-0.40;99.90
38118;DHT22;23928;47.562;7.508;2023-03-01T09:54:20;-0.30;99.90
38118;DHT22;23928;47.562;7.508;2023-03-01T09:57:09;-0.30;99.90
38118;DHT22;23928;47.562;7.508;2023-03-01T10:02:47;-0.20;99.90
38118;DHT22;23928;47.562;7.508;2023-03-01T10:05:31;-0.30;99.90
38118;DHT22;23928;47.562;7.508;2023-03-01T10:10:54;-0.10;99.90
38118;DHT22;23928;47.562;7.508;2023-03-01T10:16:51;-0.10;99.90
38118;DHT22;23928;47.562;7.508;2023-03-01T10:19:33;-0.10;99.90
38118;DHT22;23928;47.562;7.508;2023-03-01T10:22:21;-0.30;99.90
38118;DHT22;23928;47.562;7.508;2023-03-01T10:24:49;-0.20;99.90
38118;DHT22;23928;47.562;7.508;2023-03-01T10:27:52;-0.20;99.90
38118;DHT22;23928;47.562;7.508;2023-03-01T10:30:17;-0.10;99.90
38118;DHT22;23928;47.562;7.508;2023-03-01T10:32:46;0.00;99.90
38118;DHT22;23928;47.562;7.508;2023-03-01T10:35:26;0.10;99.90
38118;DHT22;23928;47.562;7.508;2023-03-01T10:38:07;0.10;99.90
38118;DHT22;23928;47.562;7.508;2023-03-01T10:40:34;-0.10;99.90
38118;DHT22;23928;47.562;7.508;2023-03-01T10:43:03;0.10;99.90
38118;DHT22;23928;47.562;7.508;2023-03-01T10:45:31;-0.10;99.90
38118;DHT22;23928;47.562;7.508;2023-03-01T10:50:29;0.10;99.90
38118;DHT22;23928;47.562;7.508;2023-03-01T10:53:01;0.20;99.90
38118;DHT22;23928;47.562;7.508;2023-03-01T10:58:20;0.60;99.90
38118;DHT22;23928;47.562;7.508;2023-03-01T11:00:54;0.40;99.90
38118;DHT22;23928;47.562;7.508;2023-03-01T11:03:31;0.20;99.90
38118;DHT22;23928;47.562;7.508;2023-03-01T11:11:33;0.60;99.90
38118;DHT22;23928;47.562;7.508;2023-03-01T11:17:10;1.00;99.90
38118;DHT22;23928;47.562;7.508;2023-03-01T11:19:37;1.00;99.90
38118;DHT22;23928;47.562;7.508;2023-03-01T11:22:07;1.00;99.90
38118;DHT22;23928;47.562;7.508;2023-03-01T11:24:50;1.00;99.90
38118;DHT22;23928;47.562;7.508;2023-03-01T11:27:24;1.30;99.90
38118;DHT22;23928;47.562;7.508;2023-03-01T11:30:03;1.40;99.90
38118;DHT22;23928;47.562;7.508;2023-03-01T11:32:53;1.50;99.90
38118;DHT22;23928;47.562;7.508;2023-03-01T11:35:25;1.50;99.90
38118;DHT22;23928;47.562;7.508;2023-03-01T11:51:25;1.90;99.90
38118;DHT22;23928;47.562;7.508;2023-03-01T11:56:31;2.10;99.90
38118;DHT22;23928;47.562;7.508;2023-03-01T12:04:55;2.10;99.90
38118;DHT22;23928;47.562;7.508;2023-03-01T12:10:20;2.10;99.90
38118;DHT22;23928;47.562;7.508;2023-03-01T12:12:57;1.90;99.90
38118;DHT22;23928;47.562;7.508;2023-03-01T12:15:30;1.60;99.90
38118;DHT22;23928;47.562;7.508;2023-03-01T12:24:14;1.90;99.90
38118;DHT22;23928;47.562;7.508;2023-03-01T12:32:20;2.30;99.90
38118;DHT22;23928;47.562;7.508;2023-03-01T12:35:22;2.40;99.90
38118;DHT22;23928;47.562;7.508;2023-03-01T12:38:06;2.50;99.90
38118;DHT22;23928;47.562;7.508;2023-03-01T12:41:01;2.30;99.90
38118;DHT22;23928;47.562;7.508;2023-03-01T12:49:41;2.50;99.90
38118;DHT22;23928;47.562;7.508;2023-03-01T12:54:55;2.60;99.90
38118;DHT22;23928;47.562;7.508;2023-03-01T13:00:38;2.50;99.90
38118;DHT22;23928;47.562;7.508;2023-03-01T13:08:27;2.50;99.90
38118;DHT22;23928;47.562;7.508;2023-03-01T13:11:01;2.80;99.90
38118;DHT22;23928;47.562;7.508;2023-03-01T13:13:29;2.80;99.90
38118;DHT22;23928;47.562;7.508;2023-03-01T13:15:56;2.90;99.90
38118;DHT22;23928;47.562;7.508;2023-03-01T13:20:49;2.80;99.90
38118;DHT22;23928;47.562;7.508;2023-03-01T13:26:14;3.10;99.90
38118;DHT22;23928;47.562;7.508;2023-03-01T13:28:54;3.20;99.90
38118;DHT22;23928;47.562;7.508;2023-03-01T13:33:53;3.00;99.90
38118;DHT22;23928;47.562;7.508;2023-03-01T13:44:37;3.30;99.90
38118;DHT22;23928;47.562;7.508;2023-03-01T13:49:56;3.10;99.90
38118;DHT22;23928;47.562;7.508;2023-03-01T13:52:43;2.90;99.90
38118;DHT22;23928;47.562;7.508;2023-03-01T13:58:00;3.10;99.90
38118;DHT22;23928;47.562;7.508;2023-03-01T14:00:33;3.30;99.90
38118;DHT22;23928;47.562;7.508;2023-03-01T14:03:02;3.40;99.90
38118;DHT22;23928;47.562;7.508;2023-03-01T14:05:30;3.50;99.90
38118;DHT22;23928;47.562;7.508;2023-03-01T14:07:55;3.60;99.90
38118;DHT22;23928;47.562;7.508;2023-03-01T14:10:21;3.50;99.90
38118;DHT22;23928;47.562;7.508;2023-03-01T14:15:31;3.50;99.90
38118;DHT22;23928;47.562;7.508;2023-03-01T14:20:39;3.30;99.90
38118;DHT22;23928;47.562;7.508;2023-03-01T14:23:12;3.40;99.90
38118;DHT22;23928;47.562;7.508;2023-03-01T14:25:38;3.50;99.90
38118;DHT22;23928;47.562;7.508;2023-03-01T14:28:18;3.60;99.90
38118;DHT22;23928;47.562;7.508;2023-03-01T14:30:49;3.50;99.90
38118;DHT22;23928;47.562;7.508;2023-03-01T14:33:26;3.50;99.90
38118;DHT22;23928;47.562;7.508;2023-03-01T14:36:12;3.60;99.90
38118;DHT22;23928;47.562;7.508;2023-03-01T14:38:46;3.60;99.90
38118;DHT22;23928;47.562;7.508;2023-03-01T14:41:22;3.60;99.90
38118;DHT22;23928;47.562;7.508;2023-03-01T14:44:12;3.50;99.90
38118;DHT22;23928;47.562;7.508;2023-03-01T14:46:41;3.50;99.90
38118;DHT22;23928;47.562;7.508;2023-03-01T14:51:48;3.70;99.90
38118;DHT22;23928;47.562;7.508;2023-03-01T14:54:44;3.60;99.90
38118;DHT22;23928;47.562;7.508;2023-03-01T14:57:16;3.60;99.90
38118;DHT22;23928;47.562;7.508;2023-03-01T14:59:42;3.70;99.90
38118;DHT22;23928;47.562;7.508;2023-03-01T15:02:17;3.70;99.90
38118;DHT22;23928;47.562;7.508;2023-03-01T15:04:55;3.60;99.90
38118;DHT22;23928;47.562;7.508;2023-03-01T15:07:24;3.80;99.90
38118;DHT22;23928;47.562;7.508;2023-03-01T15:09:51;3.80;99.90
38118;DHT22;23928;47.562;7.508;2023-03-01T15:12:34;3.70;99.90
38118;DHT22;23928;47.562;7.508;2023-03-01T15:15:00;3.90;99.90
38118;DHT22;23928;47.562;7.508;2023-03-01T15:17:28;3.80;99.90
38118;DHT22;23928;47.562;7.508;2023-03-01T15:19:55;3.80;99.90
38118;DHT22;23928;47.562;7.508;2023-03-01T15:22:22;3.90;99.90
38118;DHT22;23928;47.562;7.508;2023-03-01T15:24:50;3.90;99.90
38118;DHT22;23928;47.562;7.508;2023-03-01T15:27:18;3.90;99.90
38118;DHT22;23928;47.562;7.508;2023-03-01T15:29:57;3.90;99.90
38118;DHT22;23928;47.562;7.508;2023-03-01T15:32:35;3.80;99.90
38118;DHT22;23928;47.562;7.508;2023-03-01T15:35:39;3.90;99.90
38118;DHT22;23928;47.562;7.508;2023-03-01T15:38:31;4.10;99.90
38118;DHT22;23928;47.562;7.508;2023-03-01T15:40:59;3.90;99.90
38118;DHT22;23928;47.562;7.508;2023-03-01T15:43:43;4.00;99.90
38118;DHT22;23928;47.562;7.508;2023-03-01T15:46:36;3.90;99.90
38118;DHT22;23928;47.562;7.508;2023-03-01T15:49:43;3.80;99.90
38118;DHT22;23928;47.562;7.508;2023-03-01T15:52:19;3.70;99.90
38118;DHT22;23928;47.562;7.508;2023-03-01T15:54:46;3.70;99.90
38118;DHT22;23928;47.562;7.508;2023-03-01T15:57:13;3.50;99.90
38118;DHT22;23928;47.562;7.508;2023-03-01T15:59:40;3.50;99.90
38118;DHT22;23928;47.562;7.508;2023-03-01T16:02:10;3.50;99.90
38118;DHT22;23928;47.562;7.508;2023-03-01T16:04:38;3.50;99.90
38118;DHT22;23928;47.562;7.508;2023-03-01T16:07:04;3.30;99.90
38118;DHT22;23928;47.562;7.508;2023-03-01T16:09:30;3.30;99.90
38118;DHT22;23928;47.562;7.508;2023-03-01T16:11:56;3.30;99.90
38118;DHT22;23928;47.562;7.508;2023-03-01T16:14:21;3.40;99.90
38118;DHT22;23928;47.562;7.508;2023-03-01T16:16:48;3.50;99.90
38118;DHT22;23928;47.562;7.508;2023-03-01T16:19:14;3.30;99.90
38118;DHT22;23928;47.562;7.508;2023-03-01T16:21:40;3.40;99.90
38118;DHT22;23928;47.562;7.508;2023-03-01T16:24:07;3.20;99.90
38118;DHT22;23928;47.562;7.508;2023-03-01T16:26:33;3.10;99.90
38118;DHT22;23928;47.562;7.508;2023-03-01T16:28:58;3.00;99.90
38118;DHT22;23928;47.562;7.508;2023-03-01T16:31:24;2.90;99.90
38118;DHT22;23928;47.562;7.508;2023-03-01T16:33:56;2.90;99.90
38118;DHT22;23928;47.562;7.508;2023-03-01T16:36:24;2.90;99.90
38118;DHT22;23928;47.562;7.508;2023-03-01T16:38:54;2.90;99.90
38118;DHT22;23928;47.562;7.508;2023-03-01T16:41:21;2.90;99.90
38118;DHT22;23928;47.562;7.508;2023-03-01T16:43:47;2.80;99.90
38118;DHT22;23928;47.562;7.508;2023-03-01T16:46:24;2.70;99.90
38118;DHT22;23928;47.562;7.508;2023-03-01T16:48:51;2.60;99.90
38118;DHT22;23928;47.562;7.508;2023-03-01T16:51:17;2.50;99.90
38118;DHT22;23928;47.562;7.508;2023-03-01T16:53:42;2.60;99.90
38118;DHT22;23928;47.562;7.508;2023-03-01T16:56:10;2.50;99.90
38118;DHT22;23928;47.562;7.508;2023-03-01T16:58:37;2.40;99.90
38118;DHT22;23928;47.562;7.508;2023-03-01T17:01:11;2.50;99.90
38118;DHT22;23928;47.562;7.508;2023-03-01T17:03:38;2.50;99.90
38118;DHT22;23928;47.562;7.508;2023-03-01T17:06:06;2.40;99.90
38118;DHT22;23928;47.562;7.508;2023-03-01T17:08:33;2.50;99.90
38118;DHT22;23928;47.562;7.508;2023-03-01T17:11:03;2.60;99.90
38118;DHT22;23928;47.562;7.508;2023-03-01T17:13:29;2.60;99.90
38118;DHT22;23928;47.562;7.508;2023-03-01T17:15:54;2.70;99.90
38118;DHT22;23928;47.562;7.508;2023-03-01T17:18:20;2.70;99.90
38118;DHT22;23928;47.562;7.508;2023-03-01T17:20:45;2.70;99.90
38118;DHT22;23928;47.562;7.508;2023-03-01T17:23:11;2.60;99.90
38118;DHT22;23928;47.562;7.508;2023-03-01T17:25:42;2.60;99.90
38118;DHT22;23928;47.562;7.508;2023-03-01T17:28:10;2.60;99.90
38118;DHT22;23928;47.562;7.508;2023-03-01T17:30:36;2.50;99.90
38118;DHT22;23928;47.562;7.508;2023-03-01T17:33:02;2.60;99.90
38118;DHT22;23928;47.562;7.508;2023-03-01T17:35:27;2.60;99.90
38118;DHT22;23928;47.562;7.508;2023-03-01T17:37:53;2.50;99.90
38118;DHT22;23928;47.562;7.508;2023-03-01T17:40:18;2.40;99.90
38118;DHT22;23928;47.562;7.508;2023-03-01T17:42:44;2.80;99.90
38118;DHT22;23928;47.562;7.508;2023-03-01T17:45:10;2.80;99.90
38118;DHT22;23928;47.562;7.508;2023-03-01T17:47:36;2.80;99.90
38118;DHT22;23928;47.562;7.508;2023-03-01T17:50:02;2.60;99.90
38118;DHT22;23928;47.562;7.508;2023-03-01T17:52:29;2.60;99.90